sensor_id;sensor_type;location;lat;lon;timestamp;P1;durP1;ratioP1;P2;durP2;ratioP2
59950;SDS011;45812;53.540;9.774;2022-12-18T00:03:45;16.45;;;7.28;;
59950;SDS011;45812;53.540;9.774;2022-12-18T00:06:11;11.82;;;5.78;;
59950;SDS011;45812;53.540;9.774;2022-12-18T00:08:37;19.00;;;7.57;;
59950;SDS011;45812;53.540;9.774;2022-12-18T00:11:06;17.35;;;6.75;;
59950;SDS011;45812;53.540;9.774;2022-12-18T00:13:32;18.23;;;6.13;;
59950;SDS011;45812;53.540;9.774;2022-12-18T00:16:02;18.42;;;6.75;;
59950;SDS011;45812;53.540;9.774;2022-12-18T00:18:32;17.35;;;7.70;;
59950;SDS011;45812;53.540;9.774;2022-12-18T00:21:01;19.58;;;6.70;;
59950;SDS011;45812;53.540;9.774;2022-12-18T00:23:28;15.00;;;6.28;;
59950;SDS011;45812;53.540;9.774;2022-12-18T00:25:54;18.98;;;6.85;;
59950;SDS011;45812;53.540;9.774;2022-12-18T00:28:19;18.88;;;7.45;;
59950;SDS011;45812;53.540;9.774;2022-12-18T00:30:45;13.65;;;6.68;;
59950;SDS011;45812;53.540;9.774;2022-12-18T00:33:10;17.13;;;6.43;;
59950;SDS011;45812;53.540;9.774;2022-12-18T00:35:35;19.27;;;7.97;;
59950;SDS011;45812;53.540;9.774;2022-12-18T00:38:01;19.77;;;6.88;;
59950;SDS011;45812;53.540;9.774;2022-12-18T00:40:26;17.60;;;6.80;;
59950;SDS011;45812;53.540;9.774;2022-12-18T00:42:51;18.45;;;7.82;;
59950;SDS011;45812;53.540;9.774;2022-12-18T00:45:23;15.63;;;6.25;;
59950;SDS011;45812;53.540;9.774;2022-12-18T00:47:53;16.90;;;6.95;;
59950;SDS011;45812;53.540;9.774;2022-12-18T00:50:19;15.88;;;6.20;;
59950;SDS011;45812;53.540;9.774;2022-12-18T00:52:44;12.98;;;6.85;;
59950;SDS011;45812;53.540;9.774;2022-12-18T00:55:10;16.27;;;7.00;;
59950;SDS011;45812;53.540;9.774;2022-12-18T00:57:36;13.38;;;5.95;;
59950;SDS011;45812;53.540;9.774;2022-12-18T01:00:02;16.45;;;6.55;;
59950;SDS011;45812;53.540;9.774;2022-12-18T01:02:28;16.95;;;6.97;;
59950;SDS011;45812;53.540;9.774;2022-12-18T01:04:54;18.65;;;6.60;;
59950;SDS011;45812;53.540;9.774;2022-12-18T01:07:19;18.60;;;7.20;;
59950;SDS011;45812;53.540;9.774;2022-12-18T01:09:44;19.48;;;7.15;;
59950;SDS011;45812;53.540;9.774;2022-12-18T01:12:09;14.80;;;6.43;;
59950;SDS011;45812;53.540;9.774;2022-12-18T01:14:34;20.25;;;7.38;;
59950;SDS011;45812;53.540;9.774;2022-12-18T01:17:02;15.48;;;6.10;;
59950;SDS011;45812;53.540;9.774;2022-12-18T01:19:28;17.55;;;8.05;;
59950;SDS011;45812;53.540;9.774;2022-12-18T01:21:53;17.70;;;6.38;;
59950;SDS011;45812;53.540;9.774;2022-12-18T01:24:19;13.90;;;6.60;;
59950;SDS011;45812;53.540;9.774;2022-12-18T01:26:44;18.88;;;6.65;;
59950;SDS011;45812;53.540;9.774;2022-12-18T01:29:09;14.27;;;6.72;;
59950;SDS011;45812;53.540;9.774;2022-12-18T01:31:35;13.70;;;6.40;;
59950;SDS011;45812;53.540;9.774;2022-12-18T01:34:01;17.77;;;6.95;;
59950;SDS011;45812;53.540;9.774;2022-12-18T01:36:28;16.50;;;7.07;;
59950;SDS011;45812;53.540;9.774;2022-12-18T01:38:56;18.60;;;6.85;;
59950;SDS011;45812;53.540;9.774;2022-12-18T01:41:25;14.38;;;5.72;;
59950;SDS011;45812;53.540;9.774;2022-12-18T01:47:20;10.30;;;5.45;;
59950;SDS011;45812;53.540;9.774;2022-12-18T01:49:49;14.27;;;6.70;;
59950;SDS011;45812;53.540;9.774;2022-12-18T01:52:15;12.65;;;6.18;;
59950;SDS011;45812;53.540;9.774;2022-12-18T01:54:43;21.85;;;6.75;;
59950;SDS011;45812;53.540;9.774;2022-12-18T01:57:09;15.02;;;6.68;;
59950;SDS011;45812;53.540;9.774;2022-12-18T01:59:34;16.02;;;6.70;;
59950;SDS011;45812;53.540;9.774;2022-12-18T02:02:01;18.17;;;6.07;;
59950;SDS011;45812;53.540;9.774;2022-12-18T02:04:28;16.08;;;6.07;;
59950;SDS011;45812;53.540;9.774;2022-12-18T02:06:55;15.73;;;6.85;;
59950;SDS011;45812;53.540;9.774;2022-12-18T02:09:38;18.02;;;5.80;;
59950;SDS011;45812;53.540;9.774;2022-12-18T02:12:12;16.15;;;6.00;;
59950;SDS011;45812;53.540;9.774;2022-12-18T02:17:21;19.02;;;6.35;;
59950;SDS011;45812;53.540;9.774;2022-12-18T02:25:40;15.68;;;5.57;;
59950;SDS011;45812;53.540;9.774;2022-12-18T02:28:22;12.35;;;6.22;;
59950;SDS011;45812;53.540;9.774;2022-12-18T02:30:52;15.77;;;6.53;;
59950;SDS011;45812;53.540;9.774;2022-12-18T02:33:21;15.70;;;5.82;;
59950;SDS011;45812;53.540;9.774;2022-12-18T02:35:47;11.43;;;5.68;;
59950;SDS011;45812;53.540;9.774;2022-12-18T02:38:14;14.80;;;5.88;;
59950;SDS011;45812;53.540;9.774;2022-12-18T02:40:41;12.00;;;6.15;;
59950;SDS011;45812;53.540;9.774;2022-12-18T02:43:08;8.93;;;5.10;;
59950;SDS011;45812;53.540;9.774;2022-12-18T02:45:34;16.65;;;5.95;;
59950;SDS011;45812;53.540;9.774;2022-12-18T02:48:00;15.45;;;5.50;;
59950;SDS011;45812;53.540;9.774;2022-12-18T02:53:17;16.85;;;6.10;;
59950;SDS011;45812;53.540;9.774;2022-12-18T03:06:48;12.43;;;5.72;;
59950;SDS011;45812;53.540;9.774;2022-12-18T03:09:17;16.27;;;6.22;;
59950;SDS011;45812;53.540;9.774;2022-12-18T03:11:47;10.88;;;6.03;;
59950;SDS011;45812;53.540;9.774;2022-12-18T03:14:38;15.35;;;6.13;;
59950;SDS011;45812;53.540;9.774;2022-12-18T03:17:07;14.70;;;5.95;;
59950;SDS011;45812;53.540;9.774;2022-12-18T03:19:38;13.73;;;5.65;;
59950;SDS011;45812;53.540;9.774;2022-12-18T03:22:06;25.38;;;6.85;;
59950;SDS011;45812;53.540;9.774;2022-12-18T03:24:33;16.30;;;6.65;;
59950;SDS011;45812;53.540;9.774;2022-12-18T03:27:02;14.85;;;5.68;;
59950;SDS011;45812;53.540;9.774;2022-12-18T03:29:37;12.35;;;5.45;;
59950;SDS011;45812;53.540;9.774;2022-12-18T03:32:15;14.18;;;5.65;;
59950;SDS011;45812;53.540;9.774;2022-12-18T03:34:50;10.70;;;4.90;;
59950;SDS011;45812;53.540;9.774;2022-12-18T03:37:20;19.15;;;6.68;;
59950;SDS011;45812;53.540;9.774;2022-12-18T03:39:45;15.40;;;6.93;;
59950;SDS011;45812;53.540;9.774;2022-12-18T03:42:14;14.73;;;5.65;;
59950;SDS011;45812;53.540;9.774;2022-12-18T03:44:45;13.18;;;5.32;;
59950;SDS011;45812;53.540;9.774;2022-12-18T03:47:23;13.18;;;5.55;;
59950;SDS011;45812;53.540;9.774;2022-12-18T03:49:57;17.98;;;5.85;;
59950;SDS011;45812;53.540;9.774;2022-12-18T03:52:36;15.15;;;5.90;;
59950;SDS011;45812;53.540;9.774;2022-12-18T03:55:07;12.60;;;5.60;;
59950;SDS011;45812;53.540;9.774;2022-12-18T03:57:35;12.73;;;4.82;;
59950;SDS011;45812;53.540;9.774;2022-12-18T04:00:05;9.18;;;5.20;;
59950;SDS011;45812;53.540;9.774;2022-12-18T04:02:33;15.23;;;5.55;;
59950;SDS011;45812;53.540;9.774;2022-12-18T04:05:02;14.55;;;6.22;;
59950;SDS011;45812;53.540;9.774;2022-12-18T04:07:29;17.73;;;5.93;;
59950;SDS011;45812;53.540;9.774;2022-12-18T04:09:56;12.15;;;5.90;;
59950;SDS011;45812;53.540;9.774;2022-12-18T04:12:24;14.52;;;6.10;;
59950;SDS011;45812;53.540;9.774;2022-12-18T04:14:51;14.50;;;5.50;;
59950;SDS011;45812;53.540;9.774;2022-12-18T04:17:16;15.45;;;5.93;;
59950;SDS011;45812;53.540;9.774;2022-12-18T04:19:41;15.45;;;5.65;;
59950;SDS011;45812;53.540;9.774;2022-12-18T04:22:08;13.15;;;5.28;;
59950;SDS011;45812;53.540;9.774;2022-12-18T04:24:34;14.50;;;5.55;;
59950;SDS011;45812;53.540;9.774;2022-12-18T04:26:59;12.95;;;4.90;;
59950;SDS011;45812;53.540;9.774;2022-12-18T04:29:25;10.85;;;5.10;;
59950;SDS011;45812;53.540;9.774;2022-12-18T04:31:50;17.02;;;6.22;;
59950;SDS011;45812;53.540;9.774;2022-12-18T04:34:15;9.93;;;5.30;;
59950;SDS011;45812;53.540;9.774;2022-12-18T04:36:40;11.30;;;6.13;;
59950;SDS011;45812;53.540;9.774;2022-12-18T04:39:06;14.20;;;6.15;;
59950;SDS011;45812;53.540;9.774;2022-12-18T04:41:31;8.70;;;4.85;;
59950;SDS011;45812;53.540;9.774;2022-12-18T04:43:56;11.60;;;4.65;;
59950;SDS011;45812;53.540;9.774;2022-12-18T04:46:21;12.30;;;5.07;;
59950;SDS011;45812;53.540;9.774;2022-12-18T04:48:47;15.73;;;5.78;;
59950;SDS011;45812;53.540;9.774;2022-12-18T04:51:12;10.18;;;5.57;;
59950;SDS011;45812;53.540;9.774;2022-12-18T04:53:37;10.88;;;4.72;;
59950;SDS011;45812;53.540;9.774;2022-12-18T04:56:07;21.02;;;5.82;;
59950;SDS011;45812;53.540;9.774;2022-12-18T04:58:34;9.75;;;4.50;;
59950;SDS011;45812;53.540;9.774;2022-12-18T05:01:00;12.32;;;5.25;;
59950;SDS011;45812;53.540;9.774;2022-12-18T05:03:26;11.40;;;4.65;;
59950;SDS011;45812;53.540;9.774;2022-12-18T05:05:54;11.18;;;5.03;;
59950;SDS011;45812;53.540;9.774;2022-12-18T05:08:19;14.55;;;5.13;;
59950;SDS011;45812;53.540;9.774;2022-12-18T05:10:44;8.20;;;4.25;;
59950;SDS011;45812;53.540;9.774;2022-12-18T05:13:10;15.90;;;6.57;;
59950;SDS011;45812;53.540;9.774;2022-12-18T05:15:35;10.23;;;4.75;;
59950;SDS011;45812;53.540;9.774;2022-12-18T05:18:01;11.75;;;5.55;;
59950;SDS011;45812;53.540;9.774;2022-12-18T05:20:27;16.02;;;4.88;;
59950;SDS011;45812;53.540;9.774;2022-12-18T05:22:53;10.27;;;4.55;;
59950;SDS011;45812;53.540;9.774;2022-12-18T05:25:19;12.15;;;4.70;;
59950;SDS011;45812;53.540;9.774;2022-12-18T05:27:45;6.63;;;4.10;;
59950;SDS011;45812;53.540;9.774;2022-12-18T05:30:11;13.65;;;5.60;;
59950;SDS011;45812;53.540;9.774;2022-12-18T05:32:37;11.73;;;5.28;;
59950;SDS011;45812;53.540;9.774;2022-12-18T05:35:03;11.90;;;4.93;;
59950;SDS011;45812;53.540;9.774;2022-12-18T05:37:29;13.48;;;5.50;;
59950;SDS011;45812;53.540;9.774;2022-12-18T05:39:54;12.55;;;5.38;;
59950;SDS011;45812;53.540;9.774;2022-12-18T05:42:20;15.10;;;5.18;;
59950;SDS011;45812;53.540;9.774;2022-12-18T05:44:45;11.98;;;6.05;;
59950;SDS011;45812;53.540;9.774;2022-12-18T05:47:10;14.30;;;5.25;;
59950;SDS011;45812;53.540;9.774;2022-12-18T05:49:35;14.25;;;5.93;;
59950;SDS011;45812;53.540;9.774;2022-12-18T05:52:01;11.48;;;5.45;;
59950;SDS011;45812;53.540;9.774;2022-12-18T05:54:27;9.63;;;5.32;;
59950;SDS011;45812;53.540;9.774;2022-12-18T05:56:53;13.55;;;5.32;;
59950;SDS011;45812;53.540;9.774;2022-12-18T05:59:18;13.38;;;5.55;;
59950;SDS011;45812;53.540;9.774;2022-12-18T06:01:44;10.60;;;5.15;;
59950;SDS011;45812;53.540;9.774;2022-12-18T06:04:09;17.30;;;5.57;;
59950;SDS011;45812;53.540;9.774;2022-12-18T06:06:34;11.27;;;5.35;;
59950;SDS011;45812;53.540;9.774;2022-12-18T06:08:59;15.20;;;5.07;;
59950;SDS011;45812;53.540;9.774;2022-12-18T06:11:26;11.82;;;5.00;;
59950;SDS011;45812;53.540;9.774;2022-12-18T06:13:52;16.52;;;5.40;;
59950;SDS011;45812;53.540;9.774;2022-12-18T06:16:19;10.98;;;4.18;;
59950;SDS011;45812;53.540;9.774;2022-12-18T06:18:44;15.70;;;6.20;;
59950;SDS011;45812;53.540;9.774;2022-12-18T06:21:09;9.63;;;4.78;;
59950;SDS011;45812;53.540;9.774;2022-12-18T06:23:35;14.75;;;5.60;;
59950;SDS011;45812;53.540;9.774;2022-12-18T06:26:10;11.32;;;5.22;;
59950;SDS011;45812;53.540;9.774;2022-12-18T06:28:37;13.20;;;4.90;;
59950;SDS011;45812;53.540;9.774;2022-12-18T06:31:03;9.18;;;4.57;;
59950;SDS011;45812;53.540;9.774;2022-12-18T06:33:29;13.68;;;5.05;;
59950;SDS011;45812;53.540;9.774;2022-12-18T06:35:59;13.35;;;5.63;;
59950;SDS011;45812;53.540;9.774;2022-12-18T06:38:26;13.50;;;4.88;;
59950;SDS011;45812;53.540;9.774;2022-12-18T06:40:51;10.70;;;5.78;;
59950;SDS011;45812;53.540;9.774;2022-12-18T06:43:16;7.85;;;5.00;;
59950;SDS011;45812;53.540;9.774;2022-12-18T06:45:42;11.88;;;5.28;;
59950;SDS011;45812;53.540;9.774;2022-12-18T06:48:07;13.52;;;5.40;;
59950;SDS011;45812;53.540;9.774;2022-12-18T06:50:32;11.55;;;4.63;;
59950;SDS011;45812;53.540;9.774;2022-12-18T06:52:57;9.38;;;5.20;;
59950;SDS011;45812;53.540;9.774;2022-12-18T06:55:23;10.57;;;4.85;;
59950;SDS011;45812;53.540;9.774;2022-12-18T06:57:48;17.30;;;5.03;;
59950;SDS011;45812;53.540;9.774;2022-12-18T07:00:13;13.77;;;6.30;;
59950;SDS011;45812;53.540;9.774;2022-12-18T07:02:39;10.85;;;4.97;;
59950;SDS011;45812;53.540;9.774;2022-12-18T07:05:05;15.48;;;5.25;;
59950;SDS011;45812;53.540;9.774;2022-12-18T07:07:31;14.70;;;4.55;;
59950;SDS011;45812;53.540;9.774;2022-12-18T07:09:56;13.93;;;4.97;;
59950;SDS011;45812;53.540;9.774;2022-12-18T07:12:21;7.88;;;4.60;;
59950;SDS011;45812;53.540;9.774;2022-12-18T07:14:46;11.63;;;4.75;;
59950;SDS011;45812;53.540;9.774;2022-12-18T07:17:12;14.13;;;5.18;;
59950;SDS011;45812;53.540;9.774;2022-12-18T07:19:37;12.15;;;4.82;;
59950;SDS011;45812;53.540;9.774;2022-12-18T07:22:02;9.98;;;4.45;;
59950;SDS011;45812;53.540;9.774;2022-12-18T07:24:28;11.35;;;4.90;;
59950;SDS011;45812;53.540;9.774;2022-12-18T07:26:53;13.95;;;4.70;;
59950;SDS011;45812;53.540;9.774;2022-12-18T07:29:18;16.35;;;5.20;;
59950;SDS011;45812;53.540;9.774;2022-12-18T07:31:44;14.93;;;5.03;;
59950;SDS011;45812;53.540;9.774;2022-12-18T07:34:10;11.55;;;4.43;;
59950;SDS011;45812;53.540;9.774;2022-12-18T07:36:36;13.45;;;5.00;;
59950;SDS011;45812;53.540;9.774;2022-12-18T07:39:01;12.85;;;5.95;;
59950;SDS011;45812;53.540;9.774;2022-12-18T07:41:27;12.38;;;4.57;;
59950;SDS011;45812;53.540;9.774;2022-12-18T07:43:52;18.48;;;5.35;;
59950;SDS011;45812;53.540;9.774;2022-12-18T07:46:17;13.52;;;5.40;;
59950;SDS011;45812;53.540;9.774;2022-12-18T07:48:43;13.23;;;5.32;;
59950;SDS011;45812;53.540;9.774;2022-12-18T07:51:09;15.57;;;5.20;;
59950;SDS011;45812;53.540;9.774;2022-12-18T07:53:35;16.45;;;5.57;;
59950;SDS011;45812;53.540;9.774;2022-12-18T07:56:05;10.35;;;4.63;;
59950;SDS011;45812;53.540;9.774;2022-12-18T07:58:33;9.23;;;4.65;;
59950;SDS011;45812;53.540;9.774;2022-12-18T08:01:06;7.10;;;4.13;;
59950;SDS011;45812;53.540;9.774;2022-12-18T08:03:33;13.07;;;5.07;;
59950;SDS011;45812;53.540;9.774;2022-12-18T08:05:59;12.02;;;4.50;;
59950;SDS011;45812;53.540;9.774;2022-12-18T08:08:28;9.63;;;4.47;;
59950;SDS011;45812;53.540;9.774;2022-12-18T08:10:54;13.43;;;5.00;;
59950;SDS011;45812;53.540;9.774;2022-12-18T08:13:20;18.58;;;4.85;;
59950;SDS011;45812;53.540;9.774;2022-12-18T08:15:46;11.43;;;5.05;;
59950;SDS011;45812;53.540;9.774;2022-12-18T08:18:11;15.07;;;6.07;;
59950;SDS011;45812;53.540;9.774;2022-12-18T08:20:36;15.77;;;5.07;;
59950;SDS011;45812;53.540;9.774;2022-12-18T08:23:02;9.35;;;4.95;;
59950;SDS011;45812;53.540;9.774;2022-12-18T08:25:27;9.75;;;4.35;;
59950;SDS011;45812;53.540;9.774;2022-12-18T08:27:52;10.70;;;5.07;;
59950;SDS011;45812;53.540;9.774;2022-12-18T08:30:17;11.02;;;5.20;;
59950;SDS011;45812;53.540;9.774;2022-12-18T08:32:43;10.88;;;4.30;;
59950;SDS011;45812;53.540;9.774;2022-12-18T08:35:08;13.93;;;5.70;;
59950;SDS011;45812;53.540;9.774;2022-12-18T08:37:33;10.52;;;4.82;;
59950;SDS011;45812;53.540;9.774;2022-12-18T08:39:59;11.75;;;4.82;;
59950;SDS011;45812;53.540;9.774;2022-12-18T08:42:24;7.90;;;4.35;;
59950;SDS011;45812;53.540;9.774;2022-12-18T08:45:08;7.18;;;4.07;;
59950;SDS011;45812;53.540;9.774;2022-12-18T08:47:34;10.02;;;4.35;;
59950;SDS011;45812;53.540;9.774;2022-12-18T08:49:59;10.50;;;4.10;;
59950;SDS011;45812;53.540;9.774;2022-12-18T08:52:24;9.05;;;4.50;;
59950;SDS011;45812;53.540;9.774;2022-12-18T08:54:49;9.77;;;4.18;;
59950;SDS011;45812;53.540;9.774;2022-12-18T08:57:15;9.75;;;4.45;;
59950;SDS011;45812;53.540;9.774;2022-12-18T08:59:41;9.95;;;4.57;;
59950;SDS011;45812;53.540;9.774;2022-12-18T09:02:06;10.70;;;4.97;;
59950;SDS011;45812;53.540;9.774;2022-12-18T09:04:34;9.48;;;4.90;;
59950;SDS011;45812;53.540;9.774;2022-12-18T09:06:59;10.65;;;4.68;;
59950;SDS011;45812;53.540;9.774;2022-12-18T09:09:25;9.00;;;4.45;;
59950;SDS011;45812;53.540;9.774;2022-12-18T09:11:50;8.38;;;4.22;;
59950;SDS011;45812;53.540;9.774;2022-12-18T09:14:15;11.75;;;5.10;;
59950;SDS011;45812;53.540;9.774;2022-12-18T09:16:40;8.80;;;4.63;;
59950;SDS011;45812;53.540;9.774;2022-12-18T09:19:06;9.70;;;5.07;;
59950;SDS011;45812;53.540;9.774;2022-12-18T09:21:32;7.78;;;4.13;;
59950;SDS011;45812;53.540;9.774;2022-12-18T09:23:59;9.27;;;4.40;;
59950;SDS011;45812;53.540;9.774;2022-12-18T09:26:25;9.75;;;4.65;;
59950;SDS011;45812;53.540;9.774;2022-12-18T09:28:51;9.32;;;4.53;;
59950;SDS011;45812;53.540;9.774;2022-12-18T09:31:17;9.85;;;4.45;;
59950;SDS011;45812;53.540;9.774;2022-12-18T09:33:45;12.10;;;5.38;;
59950;SDS011;45812;53.540;9.774;2022-12-18T09:36:12;9.63;;;4.72;;
59950;SDS011;45812;53.540;9.774;2022-12-18T09:38:39;7.80;;;4.05;;
59950;SDS011;45812;53.540;9.774;2022-12-18T09:41:06;12.25;;;4.88;;
59950;SDS011;45812;53.540;9.774;2022-12-18T09:43:55;12.20;;;5.10;;
59950;SDS011;45812;53.540;9.774;2022-12-18T09:46:36;9.05;;;4.60;;
59950;SDS011;45812;53.540;9.774;2022-12-18T09:49:06;11.32;;;4.68;;
59950;SDS011;45812;53.540;9.774;2022-12-18T09:51:39;14.02;;;5.10;;
59950;SDS011;45812;53.540;9.774;2022-12-18T09:56:40;10.15;;;4.88;;
59950;SDS011;45812;53.540;9.774;2022-12-18T09:59:09;9.88;;;5.03;;
59950;SDS011;45812;53.540;9.774;2022-12-18T10:01:44;8.65;;;4.45;;
59950;SDS011;45812;53.540;9.774;2022-12-18T10:04:09;12.23;;;5.50;;
59950;SDS011;45812;53.540;9.774;2022-12-18T10:06:39;12.00;;;4.57;;
59950;SDS011;45812;53.540;9.774;2022-12-18T10:09:18;8.27;;;4.70;;
59950;SDS011;45812;53.540;9.774;2022-12-18T10:11:59;12.50;;;5.00;;
59950;SDS011;45812;53.540;9.774;2022-12-18T10:17:38;10.68;;;5.18;;
59950;SDS011;45812;53.540;9.774;2022-12-18T10:23:04;13.13;;;5.97;;
59950;SDS011;45812;53.540;9.774;2022-12-18T10:28:12;8.20;;;4.55;;
59950;SDS011;45812;53.540;9.774;2022-12-18T10:30:39;10.63;;;4.93;;
59950;SDS011;45812;53.540;9.774;2022-12-18T10:33:08;15.70;;;6.43;;
59950;SDS011;45812;53.540;9.774;2022-12-18T10:35:37;10.77;;;5.00;;
59950;SDS011;45812;53.540;9.774;2022-12-18T10:38:07;12.23;;;5.38;;
59950;SDS011;45812;53.540;9.774;2022-12-18T10:40:56;8.00;;;5.13;;
59950;SDS011;45812;53.540;9.774;2022-12-18T10:46:04;7.78;;;3.50;;
59950;SDS011;45812;53.540;9.774;2022-12-18T10:48:34;7.95;;;3.83;;
59950;SDS011;45812;53.540;9.774;2022-12-18T10:51:04;7.63;;;3.90;;
59950;SDS011;45812;53.540;9.774;2022-12-18T10:53:31;6.97;;;3.75;;
59950;SDS011;45812;53.540;9.774;2022-12-18T10:55:59;10.02;;;4.05;;
59950;SDS011;45812;53.540;9.774;2022-12-18T10:58:26;12.25;;;6.22;;
59950;SDS011;45812;53.540;9.774;2022-12-18T11:04:13;156.13;;;67.93;;
59950;SDS011;45812;53.540;9.774;2022-12-18T11:06:33;155.52;;;89.47;;
59950;SDS011;45812;53.540;9.774;2022-12-18T11:08:59;64.22;;;31.55;;
59950;SDS011;45812;53.540;9.774;2022-12-18T11:11:49;87.00;;;41.03;;
59950;SDS011;45812;53.540;9.774;2022-12-18T11:14:27;11.15;;;4.75;;
59950;SDS011;45812;53.540;9.774;2022-12-18T11:17:17;5.82;;;3.80;;
59950;SDS011;45812;53.540;9.774;2022-12-18T11:19:44;6.80;;;3.65;;
59950;SDS011;45812;53.540;9.774;2022-12-18T11:22:18;10.50;;;3.80;;
59950;SDS011;45812;53.540;9.774;2022-12-18T11:24:49;9.27;;;4.85;;
59950;SDS011;45812;53.540;9.774;2022-12-18T11:27:18;10.20;;;4.68;;
59950;SDS011;45812;53.540;9.774;2022-12-18T11:29:44;9.23;;;4.85;;
59950;SDS011;45812;53.540;9.774;2022-12-18T11:32:21;10.98;;;5.20;;
59950;SDS011;45812;53.540;9.774;2022-12-18T11:37:55;14.65;;;5.78;;
59950;SDS011;45812;53.540;9.774;2022-12-18T11:40:33;11.50;;;5.97;;
59950;SDS011;45812;53.540;9.774;2022-12-18T11:48:30;8.55;;;4.95;;
59950;SDS011;45812;53.540;9.774;2022-12-18T11:51:02;9.52;;;4.78;;
59950;SDS011;45812;53.540;9.774;2022-12-18T11:53:33;11.48;;;4.95;;
59950;SDS011;45812;53.540;9.774;2022-12-18T11:56:05;11.85;;;4.95;;
59950;SDS011;45812;53.540;9.774;2022-12-18T12:01:23;6.85;;;4.32;;
59950;SDS011;45812;53.540;9.774;2022-12-18T12:06:55;15.23;;;5.93;;
59950;SDS011;45812;53.540;9.774;2022-12-18T12:09:35;10.02;;;4.88;;
59950;SDS011;45812;53.540;9.774;2022-12-18T12:17:58;13.07;;;4.97;;
59950;SDS011;45812;53.540;9.774;2022-12-18T12:20:46;8.88;;;4.97;;
59950;SDS011;45812;53.540;9.774;2022-12-18T12:23:20;9.27;;;5.18;;
59950;SDS011;45812;53.540;9.774;2022-12-18T12:25:57;13.80;;;5.72;;
59950;SDS011;45812;53.540;9.774;2022-12-18T12:31:47;11.63;;;5.22;;
59950;SDS011;45812;53.540;9.774;2022-12-18T12:39:49;12.38;;;4.72;;
59950;SDS011;45812;53.540;9.774;2022-12-18T12:42:52;10.52;;;4.40;;
59950;SDS011;45812;53.540;9.774;2022-12-18T12:45:36;9.48;;;5.43;;
59950;SDS011;45812;53.540;9.774;2022-12-18T12:48:07;10.95;;;4.85;;
59950;SDS011;45812;53.540;9.774;2022-12-18T12:50:41;10.95;;;4.90;;
59950;SDS011;45812;53.540;9.774;2022-12-18T12:53:07;13.32;;;5.75;;
59950;SDS011;45812;53.540;9.774;2022-12-18T12:55:39;10.95;;;5.30;;
59950;SDS011;45812;53.540;9.774;2022-12-18T12:58:16;10.60;;;5.43;;
59950;SDS011;45812;53.540;9.774;2022-12-18T13:00:49;10.43;;;5.72;;
59950;SDS011;45812;53.540;9.774;2022-12-18T13:06:40;15.60;;;5.90;;
59950;SDS011;45812;53.540;9.774;2022-12-18T13:09:11;13.45;;;5.78;;
59950;SDS011;45812;53.540;9.774;2022-12-18T13:11:46;14.75;;;6.30;;
59950;SDS011;45812;53.540;9.774;2022-12-18T13:14:32;18.17;;;6.53;;
59950;SDS011;45812;53.540;9.774;2022-12-18T13:19:43;16.63;;;6.25;;
59950;SDS011;45812;53.540;9.774;2022-12-18T13:24:56;11.52;;;6.72;;
59950;SDS011;45812;53.540;9.774;2022-12-18T13:30:32;18.52;;;8.55;;
59950;SDS011;45812;53.540;9.774;2022-12-18T13:38:20;19.00;;;7.95;;
59950;SDS011;45812;53.540;9.774;2022-12-18T13:45:49;19.02;;;8.52;;
59950;SDS011;45812;53.540;9.774;2022-12-18T13:48:24;18.08;;;7.65;;
59950;SDS011;45812;53.540;9.774;2022-12-18T13:50:53;20.42;;;8.05;;
59950;SDS011;45812;53.540;9.774;2022-12-18T13:53:24;17.80;;;7.85;;
59950;SDS011;45812;53.540;9.774;2022-12-18T13:55:53;22.70;;;9.00;;
59950;SDS011;45812;53.540;9.774;2022-12-18T13:58:19;19.15;;;8.15;;
59950;SDS011;45812;53.540;9.774;2022-12-18T14:00:44;17.95;;;8.23;;
59950;SDS011;45812;53.540;9.774;2022-12-18T14:03:20;20.70;;;8.48;;
59950;SDS011;45812;53.540;9.774;2022-12-18T14:05:54;23.55;;;8.25;;
59950;SDS011;45812;53.540;9.774;2022-12-18T14:08:23;17.52;;;7.30;;
59950;SDS011;45812;53.540;9.774;2022-12-18T14:10:51;21.02;;;8.60;;
59950;SDS011;45812;53.540;9.774;2022-12-18T14:13:21;21.45;;;8.30;;
59950;SDS011;45812;53.540;9.774;2022-12-18T14:16:00;22.38;;;8.52;;
59950;SDS011;45812;53.540;9.774;2022-12-18T14:18:31;23.65;;;9.05;;
59950;SDS011;45812;53.540;9.774;2022-12-18T14:21:03;18.33;;;8.63;;
59950;SDS011;45812;53.540;9.774;2022-12-18T14:23:36;21.02;;;8.75;;
59950;SDS011;45812;53.540;9.774;2022-12-18T14:26:25;22.38;;;8.80;;
59950;SDS011;45812;53.540;9.774;2022-12-18T14:28:52;22.80;;;9.23;;
59950;SDS011;45812;53.540;9.774;2022-12-18T14:31:19;22.48;;;9.90;;
59950;SDS011;45812;53.540;9.774;2022-12-18T14:33:49;19.00;;;8.80;;
59950;SDS011;45812;53.540;9.774;2022-12-18T14:36:16;24.08;;;9.50;;
59950;SDS011;45812;53.540;9.774;2022-12-18T14:38:50;22.42;;;9.77;;
59950;SDS011;45812;53.540;9.774;2022-12-18T14:41:17;27.77;;;9.60;;
59950;SDS011;45812;53.540;9.774;2022-12-18T14:43:45;26.48;;;10.07;;
59950;SDS011;45812;53.540;9.774;2022-12-18T14:48:50;25.73;;;10.30;;
59950;SDS011;45812;53.540;9.774;2022-12-18T14:51:17;27.38;;;10.35;;
59950;SDS011;45812;53.540;9.774;2022-12-18T14:53:48;25.05;;;9.77;;
59950;SDS011;45812;53.540;9.774;2022-12-18T14:56:28;24.73;;;10.23;;
59950;SDS011;45812;53.540;9.774;2022-12-18T14:59:03;24.75;;;10.00;;
59950;SDS011;45812;53.540;9.774;2022-12-18T15:01:31;27.23;;;10.85;;
59950;SDS011;45812;53.540;9.774;2022-12-18T15:04:00;28.05;;;10.00;;
59950;SDS011;45812;53.540;9.774;2022-12-18T15:06:31;27.20;;;10.18;;
59950;SDS011;45812;53.540;9.774;2022-12-18T15:08:59;27.25;;;9.75;;
59950;SDS011;45812;53.540;9.774;2022-12-18T15:11:27;28.48;;;11.15;;
59950;SDS011;45812;53.540;9.774;2022-12-18T15:13:57;27.77;;;11.45;;
59950;SDS011;45812;53.540;9.774;2022-12-18T15:16:23;29.40;;;11.57;;
59950;SDS011;45812;53.540;9.774;2022-12-18T15:18:48;29.23;;;10.30;;
59950;SDS011;45812;53.540;9.774;2022-12-18T15:21:16;31.17;;;10.88;;
59950;SDS011;45812;53.540;9.774;2022-12-18T15:26:09;64.73;;;29.10;;
59950;SDS011;45812;53.540;9.774;2022-12-18T15:33:37;27.88;;;11.75;;
59950;SDS011;45812;53.540;9.774;2022-12-18T15:36:05;31.02;;;10.98;;
59950;SDS011;45812;53.540;9.774;2022-12-18T15:38:37;29.63;;;11.07;;
59950;SDS011;45812;53.540;9.774;2022-12-18T15:41:02;29.85;;;12.20;;
59950;SDS011;45812;53.540;9.774;2022-12-18T15:43:28;32.33;;;13.10;;
59950;SDS011;45812;53.540;9.774;2022-12-18T15:46:03;28.45;;;12.02;;
59950;SDS011;45812;53.540;9.774;2022-12-18T15:48:32;32.60;;;11.55;;
59950;SDS011;45812;53.540;9.774;2022-12-18T15:50:59;34.67;;;12.00;;
59950;SDS011;45812;53.540;9.774;2022-12-18T15:53:25;34.28;;;12.75;;
59950;SDS011;45812;53.540;9.774;2022-12-18T15:55:54;33.97;;;13.05;;
59950;SDS011;45812;53.540;9.774;2022-12-18T15:58:38;32.70;;;12.27;;
59950;SDS011;45812;53.540;9.774;2022-12-18T16:01:03;29.63;;;13.48;;
59950;SDS011;45812;53.540;9.774;2022-12-18T16:03:29;33.15;;;12.25;;
59950;SDS011;45812;53.540;9.774;2022-12-18T16:05:54;28.13;;;12.68;;
59950;SDS011;45812;53.540;9.774;2022-12-18T16:08:19;35.17;;;13.85;;
59950;SDS011;45812;53.540;9.774;2022-12-18T16:10:45;32.58;;;12.18;;
59950;SDS011;45812;53.540;9.774;2022-12-18T16:13:10;35.15;;;13.75;;
59950;SDS011;45812;53.540;9.774;2022-12-18T16:15:36;30.30;;;12.50;;
59950;SDS011;45812;53.540;9.774;2022-12-18T16:18:02;31.98;;;12.68;;
59950;SDS011;45812;53.540;9.774;2022-12-18T16:20:27;32.15;;;12.20;;
59950;SDS011;45812;53.540;9.774;2022-12-18T16:22:52;32.90;;;12.45;;
59950;SDS011;45812;53.540;9.774;2022-12-18T16:25:25;32.63;;;12.85;;
59950;SDS011;45812;53.540;9.774;2022-12-18T16:27:52;30.40;;;12.30;;
59950;SDS011;45812;53.540;9.774;2022-12-18T16:30:22;33.65;;;12.23;;